sensor_id;sensor_type;location;lat;lon;timestamp;temperature;humidity
59857;DHT22;45733;52.668;6.860;2023-07-31T00:01:04;16.30;99.90
59857;DHT22;45733;52.668;6.860;2023-07-31T00:03:30;16.20;99.90
59857;DHT22;45733;52.668;6.860;2023-07-31T00:05:55;16.50;99.90
59857;DHT22;45733;52.668;6.860;2023-07-31T00:08:21;16.40;99.90
59857;DHT22;45733;52.668;6.860;2023-07-31T00:10:50;16.30;99.90
59857;DHT22;45733;52.668;6.860;2023-07-31T00:13:16;16.30;99.90
59857;DHT22;45733;52.668;6.860;2023-07-31T00:15:42;16.10;99.90
59857;DHT22;45733;52.668;6.860;2023-07-31T00:18:07;16.30;99.90
59857;DHT22;45733;52.668;6.860;2023-07-31T00:20:33;16.20;99.90
59857;DHT22;45733;52.668;6.860;2023-07-31T00:22:58;16.30;99.90
59857;DHT22;45733;52.668;6.860;2023-07-31T00:25:24;16.40;99.90
59857;DHT22;45733;52.668;6.860;2023-07-31T00:27:50;16.30;99.90
59857;DHT22;45733;52.668;6.860;2023-07-31T00:30:15;16.00;99.90
59857;DHT22;45733;52.668;6.860;2023-07-31T00:32:41;16.00;99.90
59857;DHT22;45733;52.668;6.860;2023-07-31T00:35:07;16.10;99.90
59857;DHT22;45733;52.668;6.860;2023-07-31T00:37:35;16.00;99.90
59857;DHT22;45733;52.668;6.860;2023-07-31T00:40:01;16.20;99.90
59857;DHT22;45733;52.668;6.860;2023-07-31T00:42:29;16.00;99.90
59857;DHT22;45733;52.668;6.860;2023-07-31T00:44:54;15.90;99.90
59857;DHT22;45733;52.668;6.860;2023-07-31T00:47:23;16.00;99.90
59857;DHT22;45733;52.668;6.860;2023-07-31T00:49:49;16.00;99.90
59857;DHT22;45733;52.668;6.860;2023-07-31T00:52:15;16.00;99.90
59857;DHT22;45733;52.668;6.860;2023-07-31T00:54:40;15.90;99.90
59857;DHT22;45733;52.668;6.860;2023-07-31T00:57:06;16.00;99.90
59857;DHT22;45733;52.668;6.860;2023-07-31T00:59:34;16.20;99.90
59857;DHT22;45733;52.668;6.860;2023-07-31T01:01:59;15.80;99.90
59857;DHT22;45733;52.668;6.860;2023-07-31T01:04:26;16.00;99.90
59857;DHT22;45733;52.668;6.860;2023-07-31T01:12:16;16.00;99.90
59857;DHT22;45733;52.668;6.860;2023-07-31T01:17:27;15.80;99.90
59857;DHT22;45733;52.668;6.860;2023-07-31T01:19:54;16.10;99.90
59857;DHT22;45733;52.668;6.860;2023-07-31T01:22:43;15.90;99.90
59857;DHT22;45733;52.668;6.860;2023-07-31T01:26:05;16.10;99.90
59857;DHT22;45733;52.668;6.860;2023-07-31T01:28:39;15.70;99.90
59857;DHT22;45733;52.668;6.860;2023-07-31T01:31:07;15.90;99.90
59857;DHT22;45733;52.668;6.860;2023-07-31T01:33:36;16.10;99.90
59857;DHT22;45733;52.668;6.860;2023-07-31T01:36:03;16.00;99.90
59857;DHT22;45733;52.668;6.860;2023-07-31T01:38:29;15.90;99.90
59857;DHT22;45733;52.668;6.860;2023-07-31T01:40:54;16.00;99.90
59857;DHT22;45733;52.668;6.860;2023-07-31T01:43:20;15.90;99.90
59857;DHT22;45733;52.668;6.860;2023-07-31T01:45:46;16.20;99.90
59857;DHT22;45733;52.668;6.860;2023-07-31T01:48:11;15.70;99.90
59857;DHT22;45733;52.668;6.860;2023-07-31T01:50:37;15.80;99.90
59857;DHT22;45733;52.668;6.860;2023-07-31T01:53:03;15.80;99.90
59857;DHT22;45733;52.668;6.860;2023-07-31T01:55:28;16.10;99.90
59857;DHT22;45733;52.668;6.860;2023-07-31T01:57:54;15.70;99.90
59857;DHT22;45733;52.668;6.860;2023-07-31T02:00:19;16.00;99.90
59857;DHT22;45733;52.668;6.860;2023-07-31T02:02:45;16.10;99.90
59857;DHT22;45733;52.668;6.860;2023-07-31T02:05:11;16.20;99.90
59857;DHT22;45733;52.668;6.860;2023-07-31T02:07:36;15.90;99.90
59857;DHT22;45733;52.668;6.860;2023-07-31T02:10:02;16.20;99.90
59857;DHT22;45733;52.668;6.860;2023-07-31T02:12:28;15.80;99.90
59857;DHT22;45733;52.668;6.860;2023-07-31T02:14:56;16.20;99.90
59857;DHT22;45733;52.668;6.860;2023-07-31T02:17:22;16.20;99.90
59857;DHT22;45733;52.668;6.860;2023-07-31T02:19:47;16.40;99.90
59857;DHT22;45733;52.668;6.860;2023-07-31T02:22:13;16.40;99.90
59857;DHT22;45733;52.668;6.860;2023-07-31T02:24:39;16.10;99.90
59857;DHT22;45733;52.668;6.860;2023-07-31T02:27:05;16.30;99.90
59857;DHT22;45733;52.668;6.860;2023-07-31T02:29:30;16.20;99.90
59857;DHT22;45733;52.668;6.860;2023-07-31T02:31:56;15.90;99.90
59857;DHT22;45733;52.668;6.860;2023-07-31T02:34:22;16.20;99.90
59857;DHT22;45733;52.668;6.860;2023-07-31T02:36:47;15.90;99.90
59857;DHT22;45733;52.668;6.860;2023-07-31T02:39:13;16.20;99.90
59857;DHT22;45733;52.668;6.860;2023-07-31T02:41:38;15.90;99.90
59857;DHT22;45733;52.668;6.860;2023-07-31T02:44:04;15.90;99.90
59857;DHT22;45733;52.668;6.860;2023-07-31T02:46:30;16.30;99.90
59857;DHT22;45733;52.668;6.860;2023-07-31T02:48:55;16.50;99.90
59857;DHT22;45733;52.668;6.860;2023-07-31T02:51:21;16.20;99.90
59857;DHT22;45733;52.668;6.860;2023-07-31T02:53:47;16.00;99.90
59857;DHT22;45733;52.668;6.860;2023-07-31T02:56:13;16.00;99.90
59857;DHT22;45733;52.668;6.860;2023-07-31T02:58:39;16.10;99.90
59857;DHT22;45733;52.668;6.860;2023-07-31T03:01:04;16.30;99.90
59857;DHT22;45733;52.668;6.860;2023-07-31T03:03:31;15.90;99.90
59857;DHT22;45733;52.668;6.860;2023-07-31T03:05:56;16.00;99.90
59857;DHT22;45733;52.668;6.860;2023-07-31T03:08:22;16.50;99.90
59857;DHT22;45733;52.668;6.860;2023-07-31T03:10:48;16.20;99.90
59857;DHT22;45733;52.668;6.860;2023-07-31T03:13:14;16.40;99.90
59857;DHT22;45733;52.668;6.860;2023-07-31T03:15:42;16.60;99.90
59857;DHT22;45733;52.668;6.860;2023-07-31T03:18:08;16.60;99.90
59857;DHT22;45733;52.668;6.860;2023-07-31T03:20:34;16.10;99.90
59857;DHT22;45733;52.668;6.860;2023-07-31T03:23:00;16.50;99.90
59857;DHT22;45733;52.668;6.860;2023-07-31T03:25:25;16.40;99.90
59857;DHT22;45733;52.668;6.860;2023-07-31T03:27:51;16.20;99.90
59857;DHT22;45733;52.668;6.860;2023-07-31T03:30:16;16.20;99.90
59857;DHT22;45733;52.668;6.860;2023-07-31T03:32:42;16.60;99.90
59857;DHT22;45733;52.668;6.860;2023-07-31T03:35:08;16.80;99.90
59857;DHT22;45733;52.668;6.860;2023-07-31T03:37:33;16.40;99.90
59857;DHT22;45733;52.668;6.860;2023-07-31T03:39:59;16.20;99.90
59857;DHT22;45733;52.668;6.860;2023-07-31T03:42:25;16.60;99.90
59857;DHT22;45733;52.668;6.860;2023-07-31T03:44:50;16.60;99.90
59857;DHT22;45733;52.668;6.860;2023-07-31T03:47:16;16.70;99.90
59857;DHT22;45733;52.668;6.860;2023-07-31T03:49:42;16.50;99.90
59857;DHT22;45733;52.668;6.860;2023-07-31T03:52:07;16.80;99.90
59857;DHT22;45733;52.668;6.860;2023-07-31T03:54:33;16.90;99.90
59857;DHT22;45733;52.668;6.860;2023-07-31T03:56:58;16.40;99.90
59857;DHT22;45733;52.668;6.860;2023-07-31T03:59:24;17.00;99.90
59857;DHT22;45733;52.668;6.860;2023-07-31T04:01:50;16.50;99.90
59857;DHT22;45733;52.668;6.860;2023-07-31T04:04:15;16.40;99.90
59857;DHT22;45733;52.668;6.860;2023-07-31T04:06:41;16.50;99.90
59857;DHT22;45733;52.668;6.860;2023-07-31T04:09:07;16.30;99.90
59857;DHT22;45733;52.668;6.860;2023-07-31T04:11:32;16.60;99.90
59857;DHT22;45733;52.668;6.860;2023-07-31T04:13:58;17.00;99.90
59857;DHT22;45733;52.668;6.860;2023-07-31T04:16:24;16.90;99.90
59857;DHT22;45733;52.668;6.860;2023-07-31T04:18:49;16.90;99.90
59857;DHT22;45733;52.668;6.860;2023-07-31T04:21:15;16.40;99.90
59857;DHT22;45733;52.668;6.860;2023-07-31T04:23:41;16.50;99.90
59857;DHT22;45733;52.668;6.860;2023-07-31T04:26:06;17.10;99.90
59857;DHT22;45733;52.668;6.860;2023-07-31T04:28:32;16.40;99.90
59857;DHT22;45733;52.668;6.860;2023-07-31T04:30:58;17.10;99.90
59857;DHT22;45733;52.668;6.860;2023-07-31T04:33:24;16.60;99.90
59857;DHT22;45733;52.668;6.860;2023-07-31T04:35:50;17.10;99.90
59857;DHT22;45733;52.668;6.860;2023-07-31T04:38:21;16.50;99.90
59857;DHT22;45733;52.668;6.860;2023-07-31T04:40:47;16.70;99.90
59857;DHT22;45733;52.668;6.860;2023-07-31T04:43:13;17.20;99.90
59857;DHT22;45733;52.668;6.860;2023-07-31T04:45:39;17.10;99.90
59857;DHT22;45733;52.668;6.860;2023-07-31T04:48:04;17.00;99.90
59857;DHT22;45733;52.668;6.860;2023-07-31T04:50:30;16.70;99.90
59857;DHT22;45733;52.668;6.860;2023-07-31T04:52:56;16.50;99.90
59857;DHT22;45733;52.668;6.860;2023-07-31T04:55:22;17.10;99.90
59857;DHT22;45733;52.668;6.860;2023-07-31T04:57:47;16.60;99.90
59857;DHT22;45733;52.668;6.860;2023-07-31T05:00:13;17.30;99.90
59857;DHT22;45733;52.668;6.860;2023-07-31T05:02:39;16.60;99.90
59857;DHT22;45733;52.668;6.860;2023-07-31T05:05:04;17.20;99.90
59857;DHT22;45733;52.668;6.860;2023-07-31T05:07:30;17.00;99.90
59857;DHT22;45733;52.668;6.860;2023-07-31T05:09:56;17.00;99.90
59857;DHT22;45733;52.668;6.860;2023-07-31T05:12:21;16.70;99.90
59857;DHT22;45733;52.668;6.860;2023-07-31T05:14:47;17.00;99.90
59857;DHT22;45733;52.668;6.860;2023-07-31T05:17:13;17.40;99.90
59857;DHT22;45733;52.668;6.860;2023-07-31T05:19:38;17.40;99.90
59857;DHT22;45733;52.668;6.860;2023-07-31T05:22:04;17.40;99.90
59857;DHT22;45733;52.668;6.860;2023-07-31T05:24:30;16.80;99.90
59857;DHT22;45733;52.668;6.860;2023-07-31T05:26:55;17.10;99.90
59857;DHT22;45733;52.668;6.860;2023-07-31T05:29:21;16.80;99.90
59857;DHT22;45733;52.668;6.860;2023-07-31T05:31:47;17.50;99.90
59857;DHT22;45733;52.668;6.860;2023-07-31T05:34:12;16.80;99.90
59857;DHT22;45733;52.668;6.860;2023-07-31T05:36:38;17.50;99.90
59857;DHT22;45733;52.668;6.860;2023-07-31T05:39:04;17.10;99.90
59857;DHT22;45733;52.668;6.860;2023-07-31T05:41:32;16.90;99.90
59857;DHT22;45733;52.668;6.860;2023-07-31T05:43:58;17.20;99.90
59857;DHT22;45733;52.668;6.860;2023-07-31T05:46:23;16.90;99.90
59857;DHT22;45733;52.668;6.860;2023-07-31T05:48:49;17.00;99.90
59857;DHT22;45733;52.668;6.860;2023-07-31T05:51:15;16.80;99.90
59857;DHT22;45733;52.668;6.860;2023-07-31T05:53:41;16.80;99.90
59857;DHT22;45733;52.668;6.860;2023-07-31T05:56:07;16.80;99.90
59857;DHT22;45733;52.668;6.860;2023-07-31T05:58:32;16.80;99.90
59857;DHT22;45733;52.668;6.860;2023-07-31T06:00:58;17.00;99.90
59857;DHT22;45733;52.668;6.860;2023-07-31T06:03:23;16.90;99.90
59857;DHT22;45733;52.668;6.860;2023-07-31T06:05:49;17.10;99.90
59857;DHT22;45733;52.668;6.860;2023-07-31T06:08:15;17.30;99.90
59857;DHT22;45733;52.668;6.860;2023-07-31T06:10:41;17.40;99.90
59857;DHT22;45733;52.668;6.860;2023-07-31T06:13:06;17.30;99.90
59857;DHT22;45733;52.668;6.860;2023-07-31T06:15:32;16.90;99.90
59857;DHT22;45733;52.668;6.860;2023-07-31T06:17:57;17.30;99.90
59857;DHT22;45733;52.668;6.860;2023-07-31T06:20:24;17.00;99.90
59857;DHT22;45733;52.668;6.860;2023-07-31T06:22:50;17.30;99.90
59857;DHT22;45733;52.668;6.860;2023-07-31T06:25:15;17.00;99.90
59857;DHT22;45733;52.668;6.860;2023-07-31T06:27:41;17.10;99.90
59857;DHT22;45733;52.668;6.860;2023-07-31T06:30:07;17.30;99.90
59857;DHT22;45733;52.668;6.860;2023-07-31T06:32:33;17.00;99.90
59857;DHT22;45733;52.668;6.860;2023-07-31T06:34:58;17.00;99.90
59857;DHT22;45733;52.668;6.860;2023-07-31T06:37:24;17.30;99.90
59857;DHT22;45733;52.668;6.860;2023-07-31T06:39:50;17.00;99.90
59857;DHT22;45733;52.668;6.860;2023-07-31T06:42:15;17.40;99.90
59857;DHT22;45733;52.668;6.860;2023-07-31T06:44:41;17.30;99.90
59857;DHT22;45733;52.668;6.860;2023-07-31T06:47:06;17.20;99.90
59857;DHT22;45733;52.668;6.860;2023-07-31T06:49:32;17.00;99.90
59857;DHT22;45733;52.668;6.860;2023-07-31T06:51:58;17.10;99.90
59857;DHT22;45733;52.668;6.860;2023-07-31T06:54:23;17.20;99.90
59857;DHT22;45733;52.668;6.860;2023-07-31T06:56:49;17.00;99.90
59857;DHT22;45733;52.668;6.860;2023-07-31T06:59:14;17.30;99.90
59857;DHT22;45733;52.668;6.860;2023-07-31T07:01:40;16.80;99.90
59857;DHT22;45733;52.668;6.860;2023-07-31T07:04:06;17.00;99.90
59857;DHT22;45733;52.668;6.860;2023-07-31T07:06:31;17.20;99.90
59857;DHT22;45733;52.668;6.860;2023-07-31T07:08:57;17.00;99.90
59857;DHT22;45733;52.668;6.860;2023-07-31T07:11:22;17.20;99.90
59857;DHT22;45733;52.668;6.860;2023-07-31T07:13:48;17.10;99.90
59857;DHT22;45733;52.668;6.860;2023-07-31T07:16:14;17.30;99.90
59857;DHT22;45733;52.668;6.860;2023-07-31T07:18:40;17.20;99.90
59857;DHT22;45733;52.668;6.860;2023-07-31T07:21:06;16.90;99.90
59857;DHT22;45733;52.668;6.860;2023-07-31T07:23:31;17.30;99.90
59857;DHT22;45733;52.668;6.860;2023-07-31T07:25:57;17.10;99.90
59857;DHT22;45733;52.668;6.860;2023-07-31T07:28:22;17.00;99.90
59857;DHT22;45733;52.668;6.860;2023-07-31T07:30:52;17.50;99.90
59857;DHT22;45733;52.668;6.860;2023-07-31T07:33:21;17.40;99.90
59857;DHT22;45733;52.668;6.860;2023-07-31T07:35:46;17.70;99.90
59857;DHT22;45733;52.668;6.860;2023-07-31T07:38:14;17.30;99.90
59857;DHT22;45733;52.668;6.860;2023-07-31T07:40:40;17.40;99.90
59857;DHT22;45733;52.668;6.860;2023-07-31T07:43:06;17.30;99.90
59857;DHT22;45733;52.668;6.860;2023-07-31T07:45:32;17.00;99.90
59857;DHT22;45733;52.668;6.860;2023-07-31T07:47:57;17.40;99.90
59857;DHT22;45733;52.668;6.860;2023-07-31T07:50:24;17.60;99.90
59857;DHT22;45733;52.668;6.860;2023-07-31T07:52:50;17.20;99.90
59857;DHT22;45733;52.668;6.860;2023-07-31T07:55:16;17.50;99.90
59857;DHT22;45733;52.668;6.860;2023-07-31T07:57:42;17.30;99.90
59857;DHT22;45733;52.668;6.860;2023-07-31T08:00:09;17.40;99.90
59857;DHT22;45733;52.668;6.860;2023-07-31T08:02:36;17.70;99.90
59857;DHT22;45733;52.668;6.860;2023-07-31T08:05:01;17.60;99.90
59857;DHT22;45733;52.668;6.860;2023-07-31T08:07:27;17.40;99.90
59857;DHT22;45733;52.668;6.860;2023-07-31T08:09:53;17.70;99.90
59857;DHT22;45733;52.668;6.860;2023-07-31T08:12:18;17.40;99.90
59857;DHT22;45733;52.668;6.860;2023-07-31T08:14:44;17.30;99.90
59857;DHT22;45733;52.668;6.860;2023-07-31T08:17:10;17.20;99.90
59857;DHT22;45733;52.668;6.860;2023-07-31T08:19:35;17.40;99.90
59857;DHT22;45733;52.668;6.860;2023-07-31T08:22:01;17.70;99.90
59857;DHT22;45733;52.668;6.860;2023-07-31T08:24:27;17.70;99.90
59857;DHT22;45733;52.668;6.860;2023-07-31T08:26:52;17.40;99.90
59857;DHT22;45733;52.668;6.860;2023-07-31T08:29:18;17.50;99.90
59857;DHT22;45733;52.668;6.860;2023-07-31T08:31:44;17.80;99.90
59857;DHT22;45733;52.668;6.860;2023-07-31T08:34:09;17.80;99.90
59857;DHT22;45733;52.668;6.860;2023-07-31T08:36:35;18.00;99.90
59857;DHT22;45733;52.668;6.860;2023-07-31T08:39:00;18.00;99.90
59857;DHT22;45733;52.668;6.860;2023-07-31T08:41:27;17.60;99.90
59857;DHT22;45733;52.668;6.860;2023-07-31T08:43:53;18.20;99.90
59857;DHT22;45733;52.668;6.860;2023-07-31T08:46:20;18.20;99.90
59857;DHT22;45733;52.668;6.860;2023-07-31T08:48:46;18.10;99.90
59857;DHT22;45733;52.668;6.860;2023-07-31T08:51:14;18.50;99.90
59857;DHT22;45733;52.668;6.860;2023-07-31T08:53:41;18.50;99.90
59857;DHT22;45733;52.668;6.860;2023-07-31T08:56:07;18.40;99.90
59857;DHT22;45733;52.668;6.860;2023-07-31T08:58:33;18.20;99.90
59857;DHT22;45733;52.668;6.860;2023-07-31T09:01:03;18.60;99.90
59857;DHT22;45733;52.668;6.860;2023-07-31T09:03:33;18.10;99.90
59857;DHT22;45733;52.668;6.860;2023-07-31T09:06:00;18.20;99.90
59857;DHT22;45733;52.668;6.860;2023-07-31T09:08:30;18.20;99.90
59857;DHT22;45733;52.668;6.860;2023-07-31T09:11:00;18.30;99.90
59857;DHT22;45733;52.668;6.860;2023-07-31T09:13:29;18.80;99.90
59857;DHT22;45733;52.668;6.860;2023-07-31T09:15:55;18.60;99.90
59857;DHT22;45733;52.668;6.860;2023-07-31T09:18:21;18.60;99.90
59857;DHT22;45733;52.668;6.860;2023-07-31T09:21:06;18.20;99.90
59857;DHT22;45733;52.668;6.860;2023-07-31T09:23:46;18.70;99.90
59857;DHT22;45733;52.668;6.860;2023-07-31T09:26:32;18.30;99.90
59857;DHT22;45733;52.668;6.860;2023-07-31T09:29:04;18.30;99.90
59857;DHT22;45733;52.668;6.860;2023-07-31T09:31:41;18.60;99.90
59857;DHT22;45733;52.668;6.860;2023-07-31T09:34:07;18.40;99.90
59857;DHT22;45733;52.668;6.860;2023-07-31T09:36:40;18.80;99.90
59857;DHT22;45733;52.668;6.860;2023-07-31T09:39:09;18.30;99.90
59857;DHT22;45733;52.668;6.860;2023-07-31T09:41:43;18.80;99.90
59857;DHT22;45733;52.668;6.860;2023-07-31T09:44:10;18.70;99.90
59857;DHT22;45733;52.668;6.860;2023-07-31T09:46:36;18.80;99.90
59857;DHT22;45733;52.668;6.860;2023-07-31T09:49:10;18.80;99.90
59857;DHT22;45733;52.668;6.860;2023-07-31T09:51:40;18.40;99.90
59857;DHT22;45733;52.668;6.860;2023-07-31T09:56:42;18.90;99.90
59857;DHT22;45733;52.668;6.860;2023-07-31T09:59:11;18.90;99.90
59857;DHT22;45733;52.668;6.860;2023-07-31T10:01:38;18.40;99.90
59857;DHT22;45733;52.668;6.860;2023-07-31T10:04:05;18.50;99.90
59857;DHT22;45733;52.668;6.860;2023-07-31T10:06:34;19.10;99.90
59857;DHT22;45733;52.668;6.860;2023-07-31T10:09:11;19.00;99.90
59857;DHT22;45733;52.668;6.860;2023-07-31T10:11:41;18.60;99.90
59857;DHT22;45733;52.668;6.860;2023-07-31T10:14:10;19.00;99.90
59857;DHT22;45733;52.668;6.860;2023-07-31T10:16:38;18.70;99.90
59857;DHT22;45733;52.668;6.860;2023-07-31T10:19:05;19.30;99.90
59857;DHT22;45733;52.668;6.860;2023-07-31T10:21:31;18.80;99.90
59857;DHT22;45733;52.668;6.860;2023-07-31T10:24:03;19.10;99.90
59857;DHT22;45733;52.668;6.860;2023-07-31T10:26:29;19.50;99.90
59857;DHT22;45733;52.668;6.860;2023-07-31T10:28:57;19.50;99.90
59857;DHT22;45733;52.668;6.860;2023-07-31T10:31:24;19.70;99.90
59857;DHT22;45733;52.668;6.860;2023-07-31T10:33:54;19.50;99.90
59857;DHT22;45733;52.668;6.860;2023-07-31T10:36:20;19.70;99.90
59857;DHT22;45733;52.668;6.860;2023-07-31T10:38:48;19.30;99.90
59857;DHT22;45733;52.668;6.860;2023-07-31T10:41:14;19.50;99.90
59857;DHT22;45733;52.668;6.860;2023-07-31T10:43:40;19.20;99.90
59857;DHT22;45733;52.668;6.860;2023-07-31T10:46:13;19.80;99.90
59857;DHT22;45733;52.668;6.860;2023-07-31T10:48:40;19.60;99.90
59857;DHT22;45733;52.668;6.860;2023-07-31T10:51:13;19.50;99.90
59857;DHT22;45733;52.668;6.860;2023-07-31T10:53:39;20.00;99.90
59857;DHT22;45733;52.668;6.860;2023-07-31T10:56:07;19.40;99.90
59857;DHT22;45733;52.668;6.860;2023-07-31T10:58:33;19.30;99.90
59857;DHT22;45733;52.668;6.860;2023-07-31T11:01:01;19.50;99.90
59857;DHT22;45733;52.668;6.860;2023-07-31T11:03:49;19.80;99.90
59857;DHT22;45733;52.668;6.860;2023-07-31T11:06:17;19.60;99.90
59857;DHT22;45733;52.668;6.860;2023-07-31T11:08:45;19.30;99.90
59857;DHT22;45733;52.668;6.860;2023-07-31T11:11:17;19.30;99.90
59857;DHT22;45733;52.668;6.860;2023-07-31T11:13:49;19.40;99.90
59857;DHT22;45733;52.668;6.860;2023-07-31T11:16:16;19.40;99.90
59857;DHT22;45733;52.668;6.860;2023-07-31T11:18:45;20.00;99.90
59857;DHT22;45733;52.668;6.860;2023-07-31T11:21:15;19.60;99.90
59857;DHT22;45733;52.668;6.860;2023-07-31T11:23:49;19.40;99.90
59857;DHT22;45733;52.668;6.860;2023-07-31T11:26:18;19.50;99.90
59857;DHT22;45733;52.668;6.860;2023-07-31T11:28:47;19.50;99.90
59857;DHT22;45733;52.668;6.860;2023-07-31T11:31:13;19.30;99.90
59857;DHT22;45733;52.668;6.860;2023-07-31T11:33:39;19.70;99.90
59857;DHT22;45733;52.668;6.860;2023-07-31T11:36:04;19.60;99.90
59857;DHT22;45733;52.668;6.860;2023-07-31T11:38:32;19.90;99.90
59857;DHT22;45733;52.668;6.860;2023-07-31T11:41:01;19.40;99.90
59857;DHT22;45733;52.668;6.860;2023-07-31T11:43:28;19.90;99.90
59857;DHT22;45733;52.668;6.860;2023-07-31T11:45:59;19.40;99.90
59857;DHT22;45733;52.668;6.860;2023-07-31T11:48:33;20.00;99.90
59857;DHT22;45733;52.668;6.860;2023-07-31T11:51:04;19.90;99.90
59857;DHT22;45733;52.668;6.860;2023-07-31T11:53:31;20.20;99.90
59857;DHT22;45733;52.668;6.860;2023-07-31T11:55:59;19.80;99.90
59857;DHT22;45733;52.668;6.860;2023-07-31T11:58:26;20.50;99.90
59857;DHT22;45733;52.668;6.860;2023-07-31T12:00:52;19.80;99.90
59857;DHT22;45733;52.668;6.860;2023-07-31T12:03:19;20.30;99.90
59857;DHT22;45733;52.668;6.860;2023-07-31T12:05:47;19.70;99.90
59857;DHT22;45733;52.668;6.860;2023-07-31T12:08:13;20.10;99.90
59857;DHT22;45733;52.668;6.860;2023-07-31T12:10:39;19.50;99.90
59857;DHT22;45733;52.668;6.860;2023-07-31T12:13:11;19.30;99.90
59857;DHT22;45733;52.668;6.860;2023-07-31T12:18:12;19.50;99.90
59857;DHT22;45733;52.668;6.860;2023-07-31T12:20:46;19.80;99.90
59857;DHT22;45733;52.668;6.860;2023-07-31T12:23:17;19.70;99.90
59857;DHT22;45733;52.668;6.860;2023-07-31T12:25:43;20.00;99.90
59857;DHT22;45733;52.668;6.860;2023-07-31T12:28:09;20.30;99.90
59857;DHT22;45733;52.668;6.860;2023-07-31T12:30:40;20.30;99.90
59857;DHT22;45733;52.668;6.860;2023-07-31T12:33:07;20.00;99.90
59857;DHT22;45733;52.668;6.860;2023-07-31T12:35:39;20.60;99.90
59857;DHT22;45733;52.668;6.860;2023-07-31T12:38:06;20.50;99.90
59857;DHT22;45733;52.668;6.860;2023-07-31T12:40:32;20.40;99.90
59857;DHT22;45733;52.668;6.860;2023-07-31T12:43:00;20.40;99.90
59857;DHT22;45733;52.668;6.860;2023-07-31T12:45:26;20.20;99.90
59857;DHT22;45733;52.668;6.860;2023-07-31T12:47:52;20.30;99.90
59857;DHT22;45733;52.668;6.860;2023-07-31T12:50:18;20.30;99.90
59857;DHT22;45733;52.668;6.860;2023-07-31T12:52:43;20.10;99.90
59857;DHT22;45733;52.668;6.860;2023-07-31T12:55:09;20.00;99.90
59857;DHT22;45733;52.668;6.860;2023-07-31T12:57:36;20.00;99.90
59857;DHT22;45733;52.668;6.860;2023-07-31T13:00:03;20.70;99.90
59857;DHT22;45733;52.668;6.860;2023-07-31T13:02:29;21.00;99.90
59857;DHT22;45733;52.668;6.860;2023-07-31T13:04:54;21.10;99.90
59857;DHT22;45733;52.668;6.860;2023-07-31T13:07:22;21.30;99.90
59857;DHT22;45733;52.668;6.860;2023-07-31T13:09:48;21.00;99.90
59857;DHT22;45733;52.668;6.860;2023-07-31T13:12:14;21.10;99.90
59857;DHT22;45733;52.668;6.860;2023-07-31T13:14:39;20.90;99.90
59857;DHT22;45733;52.668;6.860;2023-07-31T13:17:05;20.90;99.90
59857;DHT22;45733;52.668;6.860;2023-07-31T13:19:31;20.50;99.90
59857;DHT22;45733;52.668;6.860;2023-07-31T13:21:57;20.80;99.90
59857;DHT22;45733;52.668;6.860;2023-07-31T13:24:23;20.70;99.90
59857;DHT22;45733;52.668;6.860;2023-07-31T13:26:48;20.70;99.90
59857;DHT22;45733;52.668;6.860;2023-07-31T13:29:14;20.70;99.90
59857;DHT22;45733;52.668;6.860;2023-07-31T13:31:39;20.80;99.90
59857;DHT22;45733;52.668;6.860;2023-07-31T13:34:05;20.60;99.90
59857;DHT22;45733;52.668;6.860;2023-07-31T13:36:31;20.60;99.90
59857;DHT22;45733;52.668;6.860;2023-07-31T13:38:56;20.70;99.90
59857;DHT22;45733;52.668;6.860;2023-07-31T13:41:22;20.60;99.90
59857;DHT22;45733;52.668;6.860;2023-07-31T13:43:48;20.80;99.90
59857;DHT22;45733;52.668;6.860;2023-07-31T13:46:13;20.70;99.90
59857;DHT22;45733;52.668;6.860;2023-07-31T13:48:39;20.80;99.90
59857;DHT22;45733;52.668;6.860;2023-07-31T13:51:04;20.90;99.90
59857;DHT22;45733;52.668;6.860;2023-07-31T13:53:30;20.70;99.90
59857;DHT22;45733;52.668;6.860;2023-07-31T13:55:56;20.60;99.90
59857;DHT22;45733;52.668;6.860;2023-07-31T13:58:22;20.60;99.90
59857;DHT22;45733;52.668;6.860;2023-07-31T14:00:47;20.70;99.90
59857;DHT22;45733;52.668;6.860;2023-07-31T14:03:13;20.70;99.90
59857;DHT22;45733;52.668;6.860;2023-07-31T14:05:39;20.70;99.90
59857;DHT22;45733;52.668;6.860;2023-07-31T14:08:04;20.80;99.90
59857;DHT22;45733;52.668;6.860;2023-07-31T14:10:30;20.70;99.90
59857;DHT22;45733;52.668;6.860;2023-07-31T14:12:56;20.60;99.90
59857;DHT22;45733;52.668;6.860;2023-07-31T14:15:21;20.70;99.90
59857;DHT22;45733;52.668;6.860;2023-07-31T14:17:47;20.70;99.90
59857;DHT22;45733;52.668;6.860;2023-07-31T14:20:13;20.50;99.90
59857;DHT22;45733;52.668;6.860;2023-07-31T14:22:39;20.30;99.90
59857;DHT22;45733;52.668;6.860;2023-07-31T14:25:05;20.30;99.90
59857;DHT22;45733;52.668;6.860;2023-07-31T14:27:30;20.20;99.90
59857;DHT22;45733;52.668;6.860;2023-07-31T14:29:56;20.20;99.90
59857;DHT22;45733;52.668;6.860;2023-07-31T14:32:22;20.10;99.90
59857;DHT22;45733;52.668;6.860;2023-07-31T14:34:51;20.10;99.90
59857;DHT22;45733;52.668;6.860;2023-07-31T14:37:16;20.30;99.90
59857;DHT22;45733;52.668;6.860;2023-07-31T14:39:42;20.50;99.90
59857;DHT22;45733;52.668;6.860;2023-07-31T14:42:09;20.60;99.90
59857;DHT22;45733;52.668;6.860;2023-07-31T14:44:34;20.60;99.90
59857;DHT22;45733;52.668;6.860;2023-07-31T14:47:00;20.70;99.90
59857;DHT22;45733;52.668;6.860;2023-07-31T14:49:26;20.60;99.90
59857;DHT22;45733;52.668;6.860;2023-07-31T14:51:53;20.80;99.90
59857;DHT22;45733;52.668;6.860;2023-07-31T14:54:19;20.80;99.90
59857;DHT22;45733;52.668;6.860;2023-07-31T14:56:45;20.70;99.90
59857;DHT22;45733;52.668;6.860;2023-07-31T14:59:11;20.70;99.90
59857;DHT22;45733;52.668;6.860;2023-07-31T15:01:37;20.60;99.90
59857;DHT22;45733;52.668;6.860;2023-07-31T15:04:03;20.50;99.90
59857;DHT22;45733;52.668;6.860;2023-07-31T15:06:29;20.60;99.90
59857;DHT22;45733;52.668;6.860;2023-07-31T15:08:54;20.30;99.90
59857;DHT22;45733;52.668;6.860;2023-07-31T15:11:20;20.10;99.90
59857;DHT22;45733;52.668;6.860;2023-07-31T15:13:46;20.10;99.90
59857;DHT22;45733;52.668;6.860;2023-07-31T15:16:12;20.10;99.90
59857;DHT22;45733;52.668;6.860;2023-07-31T15:18:38;20.10;99.90
59857;DHT22;45733;52.668;6.860;2023-07-31T15:21:04;20.00;99.90
59857;DHT22;45733;52.668;6.860;2023-07-31T15:23:31;20.10;99.90
59857;DHT22;45733;52.668;6.860;2023-07-31T15:25:56;20.00;99.90
59857;DHT22;45733;52.668;6.860;2023-07-31T15:28:22;20.00;99.90
59857;DHT22;45733;52.668;6.860;2023-07-31T15:30:48;20.00;99.90
59857;DHT22;45733;52.668;6.860;2023-07-31T15:33:14;19.90;99.90
59857;DHT22;45733;52.668;6.860;2023-07-31T15:35:40;19.70;99.90
59857;DHT22;45733;52.668;6.860;2023-07-31T15:38:06;19.80;99.90
59857;DHT22;45733;52.668;6.860;2023-07-31T15:40:44;19.80;99.90